TimeCDT,TemperatureF,Dew PointF,Humidity,Sea Level PressureIn,VisibilityMPH,Wind Direction,Wind SpeedMPH,Gust SpeedMPH,PrecipitationIn,Events,Conditions,WindDirDegrees,DateUTC
12:15 AM,76.5,70.7,82,29.97,10.0,Calm,Calm,-,N/A,,Clear,0,2013-08-02 05:15:00
12:35 AM,75.4,70.9,86,29.96,10.0,Calm,Calm,-,N/A,,Clear,0,2013-08-02 05:35:00
12:55 AM,75.4,71.1,86,29.96,10.0,NNE,3.5,-,N/A,,Scattered Clouds,30,2013-08-02 05:55:00
1:15 AM,75.0,70.9,87,29.95,10.0,Calm,Calm,-,N/A,,Scattered Clouds,0,2013-08-02 06:15:00
1:55 AM,75.0,70.5,86,29.94,10.0,Calm,Calm,-,N/A,,Clear,0,2013-08-02 06:55:00
2:15 AM,74.5,71.1,89,29.94,10.0,Calm,Calm,-,N/A,,Scattered Clouds,0,2013-08-02 07:15:00
2:35 AM,75.0,71.1,87,29.94,10.0,Calm,Calm,-,N/A,,Scattered Clouds,0,2013-08-02 07:35:00
2:55 AM,74.3,71.4,91,29.94,10.0,Calm,Calm,-,N/A,,Scattered Clouds,0,2013-08-02 07:55:00
3:15 AM,73.6,71.2,92,29.93,10.0,Calm,Calm,-,N/A,,Scattered Clouds,0,2013-08-02 08:15:00
3:35 AM,73.4,71.2,93,29.93,10.0,Calm,Calm,-,N/A,,Clear,0,2013-08-02 08:35:00
3:55 AM,73.2,71.6,95,29.93,10.0,Calm,Calm,-,N/A,,Clear,0,2013-08-02 08:55:00
4:15 AM,72.9,71.4,95,29.93,10.0,Calm,Calm,-,N/A,,Clear,0,2013-08-02 09:15:00
4:35 AM,73.9,71.6,92,29.94,10.0,Calm,Calm,-,N/A,,Clear,0,2013-08-02 09:35:00
4:55 AM,73.4,71.2,93,29.94,10.0,Calm,Calm,-,N/A,,Clear,0,2013-08-02 09:55:00
5:15 AM,74.3,71.4,91,29.96,10.0,Calm,Calm,-,N/A,,Clear,0,2013-08-02 10:15:00
5:35 AM,73.8,71.6,93,29.96,10.0,Calm,Calm,-,N/A,,Clear,0,2013-08-02 10:35:00
5:55 AM,73.0,71.4,95,29.96,10.0,Calm,Calm,-,N/A,,Clear,0,2013-08-02 10:55:00
6:15 AM,73.0,71.6,95,29.97,10.0,Calm,Calm,-,N/A,,Clear,0,2013-08-02 11:15:00
6:35 AM,73.2,71.6,95,29.97,10.0,Calm,Calm,-,N/A,,Clear,0,2013-08-02 11:35:00
6:55 AM,73.4,72.0,95,29.97,10.0,Calm,Calm,-,N/A,,Clear,0,2013-08-02 11:55:00
7:35 AM,76.1,72.9,90,29.97,10.0,Calm,Calm,-,N/A,,Clear,0,2013-08-02 12:35:00
7:55 AM,77.2,73.2,88,29.97,10.0,Calm,Calm,-,N/A,,Clear,0,2013-08-02 12:55:00
8:15 AM,79.0,73.9,84,29.98,10.0,Calm,Calm,-,N/A,,Clear,0,2013-08-02 13:15:00
8:35 AM,79.9,74.5,83,29.98,10.0,Calm,Calm,-,N/A,,Clear,0,2013-08-02 13:35:00
8:55 AM,81.7,74.3,78,29.99,10.0,Calm,Calm,-,N/A,,Clear,0,2013-08-02 13:55:00
9:15 AM,83.7,75.9,77,30.00,10.0,Calm,Calm,-,N/A,,Clear,0,2013-08-02 14:15:00
9:35 AM,84.2,76.5,77,30.00,10.0,Calm,Calm,-,N/A,,Clear,0,2013-08-02 14:35:00
9:55 AM,85.1,76.5,75,30.00,10.0,Calm,Calm,-,N/A,,Clear,0,2013-08-02 14:55:00
10:15 AM,85.8,76.8,74,30.00,10.0,Calm,Calm,-,N/A,,Clear,0,2013-08-02 15:15:00
10:35 AM,87.4,77.5,72,30.00,10.0,Calm,Calm,-,N/A,,Clear,0,2013-08-02 15:35:00
10:55 AM,87.1,77.5,73,30.00,10.0,Calm,Calm,-,N/A,,Scattered Clouds,0,2013-08-02 15:55:00
11:15 AM,87.6,77.2,71,29.99,10.0,Calm,Calm,-,N/A,,Mostly Cloudy,0,2013-08-02 16:15:00
11:35 AM,88.2,77.2,70,29.99,10.0,Calm,Calm,-,N/A,,Scattered Clouds,0,2013-08-02 16:35:00
11:55 AM,89.1,75.7,65,29.99,10.0,Calm,Calm,-,N/A,,Scattered Clouds,0,2013-08-02 16:55:00
12:15 PM,88.2,76.6,69,29.98,10.0,Calm,Calm,-,N/A,,Scattered Clouds,0,2013-08-02 17:15:00
12:35 PM,89.2,75.9,65,29.98,10.0,Calm,Calm,-,N/A,,Mostly Cloudy,0,2013-08-02 17:35:00
12:55 PM,90.9,76.6,63,29.98,10.0,Calm,Calm,-,N/A,,Scattered Clouds,0,2013-08-02 17:55:00
1:15 PM,91.9,76.1,60,29.98,10.0,East,6.9,-,N/A,,Scattered Clouds,80,2013-08-02 18:15:00
1:35 PM,91.6,75.6,59,29.98,10.0,Calm,Calm,-,N/A,,Mostly Cloudy,0,2013-08-02 18:35:00
1:55 PM,91.4,75.6,60,29.97,10.0,Calm,Calm,-,N/A,,Mostly Cloudy,0,2013-08-02 18:55:00
2:15 PM,92.8,76.8,59,29.97,10.0,Calm,Calm,-,N/A,,Mostly Cloudy,0,2013-08-02 19:15:00
2:35 PM,93.0,75.0,56,29.96,10.0,East,3.5,-,N/A,,Scattered Clouds,80,2013-08-02 19:35:00
2:55 PM,94.1,76.1,56,29.96,10.0,NNE,4.6,-,N/A,,Mostly Cloudy,20,2013-08-02 19:55:00
3:15 PM,93.6,74.3,53,29.95,10.0,Calm,Calm,-,N/A,,Scattered Clouds,0,2013-08-02 20:15:00
3:35 PM,93.9,74.1,52,29.94,10.0,Calm,Calm,-,N/A,,Mostly Cloudy,0,2013-08-02 20:35:00
3:55 PM,94.5,72.7,49,29.94,10.0,North,3.5,-,N/A,,Scattered Clouds,360,2013-08-02 20:55:00
4:15 PM,94.8,74.1,51,29.94,10.0,East,4.6,-,N/A,,Scattered Clouds,100,2013-08-02 21:15:00
4:35 PM,93.2,73.9,53,29.93,10.0,ESE,3.5,-,N/A,,Scattered Clouds,120,2013-08-02 21:35:00
4:55 PM,93.6,74.3,53,29.93,10.0,NNE,3.5,-,N/A,,Mostly Cloudy,30,2013-08-02 21:55:00
5:15 PM,91.4,76.3,61,29.93,10.0,NW,8.1,-,N/A,,Overcast,320,2013-08-02 22:15:00
5:35 PM,91.6,75.9,60,29.93,10.0,North,3.5,-,N/A,,Scattered Clouds,360,2013-08-02 22:35:00
5:55 PM,91.9,75.6,59,29.93,10.0,Calm,Calm,-,N/A,Thunderstorm,Clear,0,2013-08-02 22:55:00
6:15 PM,91.4,76.6,62,29.94,10.0,Calm,Calm,-,N/A,Thunderstorm,Mostly Cloudy,0,2013-08-02 23:15:00
6:35 PM,91.0,75.9,61,29.94,10.0,Calm,Calm,-,N/A,,Mostly Cloudy,0,2013-08-02 23:35:00
6:55 PM,87.6,76.8,70,29.95,10.0,SSW,5.8,10.4,N/A,,Scattered Clouds,200,2013-08-02 23:55:00
7:15 PM,86.0,77.2,75,29.95,10.0,South,8.1,-,N/A,,Clear,180,2013-08-03 00:15:00
7:35 PM,84.4,77.0,78,29.96,10.0,SSW,4.6,-,N/A,,Clear,210,2013-08-03 00:35:00
7:55 PM,83.3,76.8,81,29.96,10.0,SSW,3.5,-,N/A,,Clear,200,2013-08-03 00:55:00
8:15 PM,82.6,76.5,82,29.97,10.0,Calm,Calm,-,N/A,,Clear,0,2013-08-03 01:15:00
8:35 PM,82.0,76.5,83,29.97,10.0,Calm,Calm,-,N/A,,Scattered Clouds,0,2013-08-03 01:35:00
8:55 PM,80.6,76.8,88,29.98,10.0,Calm,Calm,-,N/A,,Clear,0,2013-08-03 01:55:00
9:15 PM,80.8,75.9,85,29.99,10.0,Calm,Calm,-,N/A,,Clear,0,2013-08-03 02:15:00
9:35 PM,79.5,76.3,90,29.99,10.0,Calm,Calm,-,N/A,,Clear,0,2013-08-03 02:35:00
9:55 PM,79.3,76.1,90,30.00,10.0,Calm,Calm,-,N/A,,Clear,0,2013-08-03 02:55:00
10:15 PM,78.8,75.7,90,30.01,10.0,Calm,Calm,-,N/A,,Clear,0,2013-08-03 03:15:00
10:35 PM,79.0,75.7,90,30.01,10.0,Calm,Calm,-,N/A,,Clear,0,2013-08-03 03:35:00
10:55 PM,79.2,75.7,89,30.01,10.0,SSE,3.5,-,N/A,,Clear,160,2013-08-03 03:55:00
11:15 PM,79.3,75.7,89,30.01,10.0,Calm,Calm,-,N/A,,Clear,0,2013-08-03 04:15:00
11:35 PM,79.2,75.9,90,30.02,10.0,Calm,Calm,-,N/A,,Clear,0,2013-08-03 04:35:00
11:55 PM,77.9,75.7,93,30.02,10.0,Calm,Calm,-,N/A,,Clear,0,2013-08-03 04:55:00